Dobrodošli na spletni strani vremenske postaje Senovo. Vse informacije so informativnega značaja, saj vremenska postaja ni del državne mreže meteoroloških postaj. AKTUALNIH OBVESTIL NI.


Posebna pozornost v zvezi z vremenskimi dogajanji ni potrebna.    Posebna pozornost v zvezi z vremenskimi dogajanji ni potrebna.

Pogled proti Armezu več informacij Pogled proti Armezu


Lisca več informacij Lisca


Radar strel več informacij blitzortung!


Radar padavin več informacij rain snow radar


Obiščite še:

Template documentation
and downloads

And another site



Weather Underground, zgodovina - Tekstovno

Dnevni povzetek za December 21, 2017 Enote:  Angleško    Metrično   Obe
« Predhodni Dan
Naslednji Dan »
Dnevni Tedenski Mesečni Letni Po meri
  Višja: Nižja: Povprečje:
Temperatura: TemperatureC °F -5.4 °F -1.2 °F
Točka rosišča: DewpointC °F -6.5 °F -2.8 °F
Vlažnost: Humidity % 0 % 88 %
Hitrost vetra: WindSpeedKMH mph 0.0 mph 0.9 mph
Sunki vetra: WindSpeedGustKMH mph - -
Veter:- - SW
Zračni tlak: PressurehPa in 0.0 in -
Padavine: 0.3 in    
Historical Graphs
 
 
Tabelarni podarki za December 21, 2017
Čas Temperatura Točka rosišča Zračni tlak Veter Hitrost vetra Sunki vetra Vlažnost Intenziteta padavin (urna)
TemperatureC °F DewpointC °F PressurehPa in Calm     Humidity % HourlyPrecipMM in
00:01 -1.0 °F -2.0 °F 1032.1 in Calm     93 % 0.0 in
00:06 -1.0 °F -2.0 °F 1032.1 in Calm     93 % 0.0 in
00:08 -1.0 °F -2.0 °F 1032.1 in Calm     93 % 0.0 in
00:13 -1.0 °F -2.0 °F 1032.1 in Calm     93 % 0.0 in
00:18 -1.0 °F -2.0 °F 1032.1 in Calm     93 % 0.0 in
00:21 -1.0 °F -2.0 °F 1032.1 in Calm     93 % 0.0 in
00:24 -1.0 °F -2.0 °F 1032.1 in Calm     93 % 0.0 in
00:29 -1.0 °F -2.0 °F 1032.1 in Calm     93 % 0.0 in
00:34 -1.0 °F -2.0 °F 1032.1 in Calm     93 % 0.0 in
00:39 -1.0 °F -2.0 °F 1032.1 in Calm     93 % 0.0 in
00:43 -1.0 °F -2.0 °F 1032.1 in Calm     93 % 0.0 in
00:44 -1.1 °F -2.1 °F 1032.1 in Calm     93 % 0.0 in
00:49 -1.1 °F -2.1 °F 1032.1 in Calm     93 % 0.0 in
00:52 -1.1 °F -2.1 °F 1032.1 in Calm     93 % 0.0 in
00:55 -1.2 °F -2.2 °F 1032.1 in Calm     93 % 0.0 in
00:59 -1.2 °F -2.2 °F 1032.1 in Calm     93 % 0.0 in
01:01 -1.2 °F -2.2 °F 1032.1 in Calm     93 % 0.0 in
01:04 -1.2 °F -2.2 °F 1032.1 in Calm     93 % 0.0 in
01:08 -1.3 °F -2.3 °F 1032.1 in Calm     93 % 0.0 in
01:11 -1.3 °F -2.3 °F 1032.1 in Calm     93 % 0.0 in
01:16 -1.4 °F -2.4 °F 1032.1 in Calm     93 % 0.0 in
01:17 -1.4 °F -2.4 °F 1032.1 in Calm     93 % 0.0 in
01:19 -1.4 °F -2.4 °F 1032.1 in Calm     93 % 0.0 in
01:22 -1.4 °F -2.4 °F 1032.1 in Calm     93 % 0.0 in
01:26 -1.5 °F -2.5 °F 1032.1 in Calm     93 % 0.0 in
01:28 -1.5 °F -2.5 °F 1032.1 in Calm     93 % 0.0 in
01:33 -1.6 °F -2.6 °F 1032.1 in Calm     93 % 0.0 in
01:37 -1.7 °F -2.7 °F 1032.1 in Calm     93 % 0.0 in
01:40 -1.8 °F -2.8 °F 1032.1 in Calm     93 % 0.0 in
01:45 -1.9 °F -2.9 °F 1032.1 in Calm     93 % 0.0 in
01:50 -2.0 °F -3.0 °F 1032.1 in Calm     93 % 0.0 in
01:55 -2.1 °F -3.1 °F 1032.1 in Calm     93 % 0.0 in
01:56 -2.1 °F -3.1 °F 1032.1 in Calm     93 % 0.0 in
02:00 -2.2 °F -3.2 °F 1032.1 in Calm     93 % 0.0 in
02:05 -2.3 °F -3.3 °F 1032.1 in Calm     93 % 0.0 in
02:07 -2.3 °F -3.3 °F 1032.1 in Calm     93 % 0.0 in
02:10 -2.3 °F -3.3 °F 1032.1 in Calm     93 % 0.0 in
02:14 -2.5 °F -3.5 °F 1032.1 in Calm     93 % 0.0 in
02:19 -2.6 °F -3.6 °F 1032.1 in Calm     93 % 0.0 in
02:23 -2.6 °F -3.6 °F 1032.1 in Calm     93 % 0.0 in
02:28 -2.8 °F -3.8 °F 1032.1 in Calm     93 % 0.0 in
02:29 -2.8 °F -3.8 °F 1032.1 in Calm     93 % 0.0 in
02:34 -2.8 °F -3.9 °F 1032.1 in Calm     92 % 0.0 in
02:37 -2.9 °F -4.0 °F 1032.1 in Calm     92 % 0.0 in
02:42 -3.1 °F -4.1 °F 1032.1 in Calm     93 % 0.0 in
02:44 -3.1 °F -4.1 °F 1032.1 in Calm     93 % 0.0 in
02:50 -3.3 °F -4.3 °F 1032.1 in Calm     93 % 0.0 in
02:51 -3.3 °F -4.3 °F 1032.1 in Calm     93 % 0.0 in
02:52 -3.3 °F -4.3 °F 1032.1 in Calm     93 % 0.0 in
02:57 -3.3 °F -4.3 °F 1032.1 in Calm     93 % 0.0 in
02:58 -3.4 °F -4.5 °F 1032.1 in Calm     92 % 0.0 in
03:01 -3.4 °F -4.5 °F 1032.1 in Calm     92 % 0.0 in
03:03 -3.4 °F -4.5 °F 1032.1 in Calm     92 % 0.0 in
03:07 -3.5 °F -4.6 °F 1032.1 in Calm     92 % 0.0 in
03:08 -3.5 °F -4.6 °F 1032.1 in Calm     92 % 0.0 in
03:14 -3.6 °F -4.7 °F 1032.1 in Calm     92 % 0.0 in
03:17 -3.6 °F -4.7 °F 1032.1 in Calm     92 % 0.0 in
03:18 -3.6 °F -4.7 °F 1032.1 in Calm     92 % 0.0 in
03:22 -3.7 °F -4.8 °F 1032.1 in Calm     92 % 0.0 in
03:27 -3.7 °F -4.8 °F 1032.1 in Calm     92 % 0.0 in
03:28 -3.7 °F -4.8 °F 1032.1 in Calm     92 % 0.0 in
03:29 -3.7 °F -4.8 °F 1032.1 in Calm     92 % 0.0 in
03:34 -3.8 °F -4.9 °F 1032.1 in Calm     92 % 0.0 in
03:35 -3.8 °F -4.9 °F 1032.1 in Calm     92 % 0.0 in
03:40 -3.9 °F -5.0 °F 1032.1 in Calm     92 % 0.0 in
03:43 -3.9 °F -5.0 °F 1032.1 in Calm     92 % 0.0 in
03:48 -4.0 °F -5.1 °F 1032.1 in Calm     92 % 0.0 in
03:49 -4.0 °F -5.1 °F 1032.1 in Calm     92 % 0.0 in
03:50 -4.0 °F -5.1 °F 1032.1 in Calm     92 % 0.0 in
03:55 -4.1 °F -5.2 °F 1032.1 in Calm     92 % 0.0 in
04:00 -4.2 °F -5.3 °F 1032.1 in Calm     92 % 0.0 in
04:01 -4.2 °F -5.3 °F 1032.1 in Calm     92 % 0.0 in
04:06 -4.2 °F -5.3 °F 1032.1 in Calm     92 % 0.0 in
04:08 -4.2 °F -5.3 °F 1032.1 in Calm     92 % 0.0 in
04:17 -4.3 °F -5.4 °F 1032.1 in Calm     92 % 0.0 in
04:20 -4.4 °F -5.5 °F 1032.1 in Calm     92 % 0.0 in
04:25 -4.4 °F -5.5 °F 1032.1 in Calm     92 % 0.0 in
04:27 -4.4 °F -5.5 °F 1032.1 in Calm     92 % 0.0 in
04:33 -4.5 °F -5.6 °F 1032.1 in Calm     92 % 0.0 in
04:34 -4.5 °F -5.6 °F 1032.1 in Calm     92 % 0.0 in
04:38 -4.5 °F -5.6 °F 1032.1 in Calm     92 % 0.0 in
04:41 -4.5 °F -5.6 °F 1032.1 in Calm     92 % 0.0 in
04:46 -4.6 °F -5.7 °F 1032.1 in Calm     92 % 0.0 in
04:48 -4.6 °F -5.7 °F 1032.1 in Calm     92 % 0.0 in
04:52 -4.7 °F -5.8 °F 1032.1 in Calm     92 % 0.0 in
04:54 -4.7 °F -5.8 °F 1032.1 in Calm     92 % 0.0 in
04:59 -4.7 °F -5.8 °F 1032.1 in Calm     92 % 0.0 in
05:04 -4.8 °F -5.9 °F 1032.1 in Calm     92 % 0.0 in
05:09 -4.9 °F -6.0 °F 1032.1 in Calm     92 % 0.0 in
05:10 -4.9 °F -6.0 °F 1032.1 in Calm     92 % 0.0 in
05:13 -4.9 °F -6.0 °F 1032.1 in Calm     92 % 0.0 in
05:18 -4.9 °F -6.0 °F 1032.1 in Calm     92 % 0.0 in
05:23 -5.0 °F -6.1 °F 1032.1 in Calm     92 % 0.0 in
05:24 -5.0 °F -6.1 °F 1032.1 in Calm     92 % 0.0 in
05:25 -5.0 °F -6.1 °F 1032.1 in Calm     92 % 0.0 in
05:30 -5.1 °F -6.2 °F 1032.1 in Calm     92 % 0.0 in
05:31 -5.1 °F -6.2 °F 1032.1 in Calm     92 % 0.0 in
05:36 -5.1 °F -6.2 °F 1032.1 in Calm     92 % 0.0 in
05:38 -5.1 °F -6.2 °F 1032.1 in Calm     92 % 0.0 in
05:40 -5.2 °F -6.3 °F 1032.1 in Calm     92 % 0.0 in
05:44 -5.2 °F -6.3 °F 1032.1 in Calm     92 % 0.0 in
05:50 -5.2 °F -6.3 °F 1032.1 in NW 0.6 mph 3.2 mph 92 % 0.0 in
05:52 -5.2 °F -6.3 °F 1032.1 in NW 0.8 mph 3.2 mph 92 % 0.0 in
05:57 -5.3 °F -6.4 °F 1032.1 in NW 1.0 mph 2.6 mph 92 % 0.0 in
05:58 -5.3 °F -6.4 °F 1032.1 in NW 0.8 mph 2.6 mph 92 % 0.0 in
06:02 -5.3 °F -6.4 °F 1032.1 in NW 0.3 mph 2.1 mph 92 % 0.0 in
06:08 -5.4 °F -6.5 °F 1032.1 in Calm     92 % 0.0 in
06:10 -5.4 °F -6.5 °F 1032.1 in Calm     92 % 0.0 in
06:15 -5.4 °F -6.5 °F 1032.1 in Calm     92 % 0.0 in
06:20 -5.4 °F -6.5 °F 1032.1 in Calm     92 % 0.0 in
06:25 -5.4 °F -6.5 °F 1032.1 in Calm     92 % 0.0 in
06:31 -5.3 °F -6.4 °F 1032.1 in Calm     92 % 0.0 in
06:32 -5.2 °F -6.3 °F 1032.1 in Calm     92 % 0.0 in
06:37 -5.2 °F -6.3 °F 1032.1 in Calm     92 % 0.0 in
06:38 -5.1 °F -6.2 °F 1032.1 in Calm     92 % 0.0 in
06:43 -5.1 °F -6.2 °F 1032.1 in Calm     92 % 0.0 in
06:48 -4.9 °F -6.0 °F 1032.1 in Calm     92 % 0.0 in
06:50 -4.9 °F -6.0 °F 1032.1 in Calm     92 % 0.0 in
06:54 -4.7 °F -5.8 °F 1032.1 in Calm     92 % 0.0 in
06:58 -4.7 °F -5.8 °F 1032.1 in Calm     92 % 0.0 in
06:59 -4.7 °F -5.8 °F 1032.1 in Calm     92 % 0.0 in
07:03 -4.6 °F -5.6 °F 1032.1 in Calm     93 % 0.0 in
07:04 -4.6 °F -5.6 °F 1032.1 in Calm     93 % 0.0 in
07:09 -4.5 °F -5.4 °F 1032.1 in Calm     93 % 0.0 in
07:13 -4.4 °F -5.3 °F 1032.1 in Calm     93 % 0.0 in
07:17 -4.3 °F -5.3 °F 1033.1 in Calm   1.8 mph 93 % 0.0 in
07:20 -4.2 °F -5.2 °F 1033.1 in Calm   1.8 mph 93 % 0.0 in
07:23 -4.2 °F -5.2 °F 1033.1 in ENE 0.2 mph 4.0 mph 93 % 0.0 in
07:26 -4.2 °F -5.2 °F 1033.1 in ENE 0.2 mph 4.0 mph 93 % 0.0 in
07:31 -4.1 °F -5.1 °F 1034.1 in ESE 0.6 mph 4.0 mph 93 % 0.0 in
07:33 -4.1 °F -5.1 °F 1034.1 in SSE 0.5 mph 3.5 mph 93 % 0.0 in
07:37 -4.1 °F -5.1 °F 1034.1 in South 0.3 mph 3.5 mph 93 % 0.0 in
07:40 -4.1 °F -5.1 °F 1034.1 in Calm     93 % 0.0 in
07:45 -4.1 °F -5.1 °F 1034.1 in Calm     93 % 0.0 in
07:47 -4.1 °F -5.1 °F 1034.1 in Calm     93 % 0.0 in
07:52 -4.1 °F -4.9 °F 1034.1 in Calm     94 % 0.0 in
07:57 -4.1 °F -4.9 °F 1034.1 in Calm     94 % 0.0 in
07:58 -4.1 °F -4.9 °F 1034.1 in Calm     94 % 0.0 in
07:59 -4.1 °F -4.9 °F 1032.1 in Calm     94 % 0.0 in
08:08 -4.1 °F -4.9 °F 1032.1 in Calm     94 % 0.0 in
08:13 -4.1 °F -4.9 °F 1032.1 in Calm     94 % 0.0 in
08:18 -4.1 °F -4.9 °F 1032.1 in Calm   1.8 mph 94 % 0.0 in
08:20 -4.2 °F -5.0 °F 1032.1 in East 0.5 mph 3.2 mph 94 % 0.0 in
08:21 -4.2 °F -5.0 °F 1032.1 in East 0.6 mph 3.2 mph 94 % 0.0 in
08:26 -4.2 °F -5.0 °F 1032.1 in ENE 0.8 mph 3.2 mph 94 % 0.0 in
08:31 -4.2 °F -5.0 °F 1032.1 in North 0.5 mph 4.0 mph 94 % 0.0 in
08:33 -4.2 °F -5.0 °F 1032.1 in North 0.5 mph 4.0 mph 94 % 0.0 in
08:34 -4.2 °F -5.0 °F 1032.1 in NNE 0.3 mph 4.0 mph 94 % 0.0 in
08:39 -4.2 °F -5.0 °F 1032.1 in NNE 0.5 mph 4.0 mph 94 % 0.0 in
08:40 -4.2 °F -5.0 °F 1032.1 in NNE 0.3 mph 4.0 mph 94 % 0.0 in
08:45 -4.2 °F -5.0 °F 1033.1 in Calm     94 % 0.0 in
08:50 -4.2 °F -5.0 °F 1033.1 in Calm     94 % 0.0 in
08:51 -4.2 °F -5.0 °F 1033.1 in Calm     94 % 0.0 in
08:56 -4.2 °F -5.0 °F 1033.1 in Calm     94 % 0.0 in
08:57 -4.2 °F -5.0 °F 1033.1 in Calm     94 % 0.0 in
09:02 -4.1 °F -4.9 °F 1033.1 in Calm     94 % 0.0 in
09:05 -4.1 °F -4.9 °F 1033.1 in Calm     94 % 0.0 in
09:10 -4.0 °F -4.8 °F 1033.1 in Calm     94 % 0.0 in
09:11 -4.0 °F -4.8 °F 1033.1 in Calm     94 % 0.0 in
09:16 -4.0 °F -4.8 °F 1033.1 in Calm     94 % 0.0 in
09:19 -3.9 °F -4.7 °F 1033.1 in Calm     94 % 0.0 in
09:21 -3.9 °F -4.7 °F 1033.1 in ESE 0.2 mph 3.5 mph 94 % 0.0 in
09:26 -3.8 °F -4.6 °F 1033.1 in SE 0.6 mph 3.5 mph 94 % 0.0 in
09:27 -3.8 °F -4.6 °F 1033.1 in SE 0.6 mph 4.0 mph 94 % 0.0 in
09:32 -3.7 °F -4.5 °F 1033.1 in ESE 0.8 mph 4.0 mph 94 % 0.0 in
09:34 -3.7 °F -4.5 °F 1033.1 in ESE 0.5 mph 4.0 mph 94 % 0.0 in
09:39 -3.6 °F -4.4 °F 1033.1 in North 0.2 mph   94 % 0.0 in
09:44 -3.5 °F -4.3 °F 1033.1 in Calm     94 % 0.0 in
09:45 -3.5 °F -4.3 °F 1033.1 in Calm     94 % 0.0 in
09:49 -3.4 °F -4.2 °F 1033.1 in Calm     94 % 0.0 in
09:51 -3.4 °F -4.2 °F 1033.1 in Calm     94 % 0.0 in
09:56 -3.3 °F -4.1 °F 1033.1 in Calm     94 % 0.0 in
10:00 -3.2 °F -4.1 °F 1033.1 in Calm     94 % 0.0 in
10:05 -3.1 °F -3.8 °F 1033.1 in Calm     95 % 0.0 in
10:06 -3.1 °F -3.8 °F 1033.1 in Calm     95 % 0.0 in
10:11 -3.0 °F -3.7 °F 1033.1 in Calm   1.4 mph 95 % 0.0 in
10:13 -2.9 °F -3.7 °F 1033.1 in Calm   1.4 mph 94 % 0.0 in
10:17 -2.8 °F -3.6 °F 1033.1 in Calm   1.4 mph 94 % 0.0 in
10:22 -2.5 °F -3.2 °F 1033.1 in Calm     95 % 0.0 in
10:23 -2.5 °F -3.2 °F 1033.1 in Calm     95 % 0.0 in
10:28 -2.3 °F -3.0 °F 1033.1 in SSE 0.2 mph 3.5 mph 95 % 0.0 in
10:33 -2.2 °F -2.9 °F 1033.1 in SE 1.0 mph 4.0 mph 95 % 0.0 in
10:34 -2.1 °F -2.8 °F 1033.1 in SE 1.1 mph 5.5 mph 95 % 0.0 in
10:39 -1.9 °F -2.6 °F 1033.1 in SE 2.3 mph 5.5 mph 95 % 0.0 in
10:43 0.0 °F -2.8 °F 1033.1 in ESE 3.7 mph 5.0 mph 0 % 0.0 in
10:47 -1.6 °F -2.3 °F 1033.1 in SE 3.5 mph 4.3 mph 95 % 0.0 in
10:50 -1.6 °F -2.3 °F 1033.1 in SE 3.5 mph 4.3 mph 95 % 0.0 in
10:52 -1.5 °F -2.2 °F 1033.1 in SSE 3.7 mph 5.8 mph 95 % 0.0 in
10:57 -1.5 °F -2.2 °F 1033.1 in SSE 2.6 mph 5.8 mph 95 % 0.0 in
10:59 -1.4 °F -2.1 °F 1033.1 in SSE 2.4 mph 5.8 mph 95 % 0.0 in
11:05 -1.3 °F -2.0 °F 1033.1 in SE 1.8 mph 4.3 mph 95 % 0.0 in
11:10 -1.2 °F -1.9 °F 1033.1 in SE 1.9 mph 4.3 mph 95 % 0.0 in
11:11 -1.1 °F -1.8 °F 1033.1 in SE 2.1 mph 4.0 mph 95 % 0.0 in
11:12 -1.1 °F -1.8 °F 1033.1 in SE 1.9 mph 4.0 mph 95 % 0.0 in
11:16 -1.0 °F -1.7 °F 1033.1 in SE 2.7 mph 5.5 mph 95 % 0.0 in
11:17 -1.0 °F -1.7 °F 1033.1 in SE 2.9 mph 5.5 mph 95 % 0.0 in
11:22 -0.8 °F -1.5 °F 1033.1 in SE 3.1 mph 5.5 mph 95 % 0.0 in
11:26 -0.5 °F -1.2 °F 1033.1 in SSE 2.3 mph 4.3 mph 95 % 0.0 in
11:31 0.0 °F -0.6 °F 1033.1 in SE 2.6 mph 5.0 mph 96 % 0.0 in
11:32 0.1 °F -0.4 °F 1033.1 in SE 2.6 mph 5.0 mph 96 % 0.0 in
11:36 0.2 °F -0.4 °F 1033.1 in SE 2.4 mph 5.0 mph 96 % 0.0 in
11:41 0.5 °F -0.1 °F 1033.1 in SE 1.8 mph 4.3 mph 96 % 0.0 in
11:44 0.7 °F 0.1 °F 1033.1 in SSE 1.9 mph 4.7 mph 96 % 0.0 in
11:49 0.9 °F 0.3 °F 1033.1 in SSE 2.6 mph 5.5 mph 96 % 0.0 in
11:50 1.1 °F 0.6 °F 1033.1 in SSE 2.9 mph 6.1 mph 96 % 0.0 in
11:55 1.4 °F 0.8 °F 1033.1 in South 3.9 mph 6.4 mph 96 % 0.0 in
11:56 1.5 °F 0.9 °F 1033.1 in South 4.2 mph 6.9 mph 96 % 0.0 in
11:57 1.5 °F 0.9 °F 1033.1 in South 4.3 mph 6.9 mph 96 % 0.0 in
12:02 1.7 °F 1.1 °F 1033.1 in South 5.1 mph 8.7 mph 96 % 0.0 in
12:07 2.0 °F 1.4 °F 1033.1 in South 5.5 mph 8.7 mph 96 % 0.0 in
12:10 2.3 °F 1.7 °F 1033.1 in South 5.1 mph 8.7 mph 96 % 0.0 in
12:14 2.5 °F 1.9 °F 1032.1 in SSW 5.1 mph 8.7 mph 96 % 0.0 in
12:19 2.8 °F 2.2 °F 1032.1 in SSW 5.6 mph 8.7 mph 96 % 0.0 in
12:20 2.8 °F 2.2 °F 1032.1 in SSW 5.6 mph 8.7 mph 96 % 0.0 in
12:25 3.1 °F 2.5 °F 1032.1 in SSW 5.8 mph 8.7 mph 96 % 0.0 in
12:26 3.2 °F 2.6 °F 1032.1 in SSW 6.3 mph 9.0 mph 96 % 0.0 in
12:31 3.4 °F 2.8 °F 1032.1 in SSW 6.0 mph 9.0 mph 96 % 0.0 in
12:34 3.6 °F 3.0 °F 1032.1 in SSW 6.0 mph 9.0 mph 96 % 0.0 in
12:39 3.6 °F 3.0 °F 1032.1 in SW 4.8 mph 7.6 mph 96 % 0.0 in
12:41 3.6 °F 3.0 °F 1032.1 in SW 4.0 mph 7.6 mph 96 % 0.0 in
12:46 3.8 °F 3.1 °F 1032.1 in WSW 4.0 mph 10.1 mph 95 % 0.0 in
12:51 3.7 °F 3.0 °F 1032.1 in WSW 4.5 mph 10.1 mph 95 % 0.0 in
12:52 3.6 °F 2.9 °F 1032.1 in WSW 4.5 mph 10.1 mph 95 % 0.0 in
12:56 3.6 °F 2.9 °F 1032.1 in WSW 3.5 mph 5.8 mph 95 % 0.0 in
12:57 3.5 °F 2.8 °F 1032.1 in WSW 3.2 mph 5.8 mph 95 % 0.0 in
13:02 3.4 °F 2.5 °F 1031.0 in West 4.2 mph 10.5 mph 94 % 0.0 in
13:03 3.4 °F 2.5 °F 1031.0 in West 4.0 mph 10.5 mph 94 % 0.0 in
13:08 3.3 °F 2.4 °F 1031.0 in WSW 4.2 mph 10.5 mph 94 % 0.0 in
13:09 3.3 °F 2.4 °F 1031.0 in WSW 4.0 mph 9.0 mph 94 % 0.0 in
13:14 3.2 °F 2.2 °F 1031.0 in West 3.9 mph 6.9 mph 93 % 0.0 in
13:16 3.2 °F 2.0 °F 1031.0 in WNW 4.2 mph 9.0 mph 92 % 0.0 in
13:20 3.2 °F 2.0 °F 1031.0 in WNW 3.7 mph 9.0 mph 92 % 0.0 in
13:22 3.3 °F 2.1 °F 1031.0 in WNW 3.9 mph 9.0 mph 92 % 0.0 in
13:25 3.3 °F 1.9 °F 1031.0 in WNW 3.7 mph 7.9 mph 91 % 0.0 in
13:26 3.3 °F 1.9 °F 1031.0 in West 3.7 mph 7.9 mph 91 % 0.0 in
13:31 3.2 °F 1.9 °F 1031.0 in WNW 4.2 mph 11.9 mph 91 % 0.0 in
13:33 3.3 °F 1.8 °F 1031.0 in WNW 4.0 mph 11.9 mph 90 % 0.0 in
13:36 3.3 °F 1.8 °F 1031.0 in WNW 4.0 mph 11.9 mph 90 % 0.0 in
13:40 3.4 °F 1.8 °F 1031.0 in WNW 4.7 mph 9.0 mph 89 % 0.0 in
13:45 3.6 °F 1.9 °F 1031.0 in WNW 5.0 mph 12.2 mph 89 % 0.0 in
13:51 3.6 °F 1.8 °F 1031.0 in West 4.5 mph 12.2 mph 88 % 0.0 in
13:56 3.6 °F 1.8 °F 1031.0 in West 3.7 mph 10.5 mph 88 % 0.0 in
13:57 3.6 °F 1.6 °F 0.0 in West 4.3 mph 5.5 mph 87 % 0.0 in
14:02 3.6 °F 1.6 °F 1031.0 in West 3.5 mph 6.4 mph 87 % 0.0 in
14:04 3.6 °F 1.6 °F 1031.0 in West 3.1 mph 6.4 mph 87 % 0.0 in
14:09 3.8 °F 1.7 °F 1031.0 in West 2.3 mph 5.8 mph 86 % 0.0 in
14:14 4.0 °F 1.7 °F 1031.0 in WSW 2.4 mph 5.8 mph 85 % 0.0 in
14:15 4.0 °F 1.7 °F 1031.0 in WSW 2.6 mph 5.8 mph 85 % 0.0 in
14:20 4.0 °F 1.6 °F 1031.0 in WSW 2.7 mph 5.5 mph 84 % 0.0 in
14:25 4.0 °F 1.6 °F 1031.0 in WSW 2.9 mph 6.1 mph 84 % 0.0 in
14:28 4.0 °F 1.4 °F 1031.0 in SW 2.7 mph 6.1 mph 83 % 0.0 in
14:31 4.0 °F 1.4 °F 1031.0 in WSW 3.2 mph 6.4 mph 83 % 0.3 in
14:36 3.8 °F 1.0 °F 1031.0 in WSW 2.6 mph 6.4 mph 82 % 0.3 in
14:38 3.8 °F 1.0 °F 1031.0 in West 2.3 mph 6.4 mph 82 % 0.3 in
14:39 3.8 °F 1.0 °F 1031.0 in West 2.1 mph 5.5 mph 82 % 0.3 in
14:44 3.8 °F 0.8 °F 1030.0 in WSW 2.7 mph 6.4 mph 81 % 0.3 in
14:45 3.8 °F 0.8 °F 1030.0 in WSW 2.7 mph 6.4 mph 81 % 0.3 in
14:50 3.8 °F 0.7 °F 1030.0 in WSW 2.7 mph 7.6 mph 80 % 0.3 in
14:51 3.8 °F 0.7 °F 1030.0 in WSW 2.6 mph 7.6 mph 80 % 0.3 in
14:56 3.6 °F 0.4 °F 1030.0 in West 1.8 mph 7.6 mph 80 % 0.3 in
14:57 3.6 °F 0.3 °F 1030.0 in West 1.4 mph 5.8 mph 79 % 0.3 in
14:58 3.6 °F 0.3 °F 1030.0 in West 1.0 mph 5.8 mph 79 % 0.3 in
15:03 3.3 °F 0.0 °F 1031.0 in WNW 2.1 mph 7.9 mph 79 % 0.3 in
15:06 3.2 °F -0.3 °F 1031.0 in WNW 1.9 mph 7.9 mph 78 % 0.3 in
15:11 3.2 °F -0.3 °F 1031.0 in West 5.0 mph 13.0 mph 78 % 0.3 in
15:14 3.1 °F -0.4 °F 1030.0 in West 5.0 mph 13.0 mph 78 % 0.3 in
15:19 3.0 °F -0.7 °F 1030.0 in WNW 4.7 mph 10.5 mph 77 % 0.3 in
15:20 3.0 °F -0.7 °F 1030.0 in West 4.3 mph 8.7 mph 77 % 0.3 in
15:21 2.9 °F -0.7 °F 1030.0 in West 3.4 mph 8.7 mph 77 % 0.3 in
15:26 2.7 °F -0.9 °F 1030.0 in WNW 1.9 mph 8.7 mph 77 % 0.3 in
15:28 2.6 °F -1.1 °F 1030.0 in WNW 1.3 mph 5.5 mph 77 % 0.0 in
15:30 2.5 °F -1.1 °F 1030.0 in WNW 0.8 mph 5.5 mph 77 % 0.0 in
15:35 2.3 °F -1.5 °F 1030.0 in West 2.3 mph 6.1 mph 76 % 0.0 in
15:37 2.3 °F -1.5 °F 1030.0 in West 2.6 mph 6.1 mph 76 % 0.0 in
15:42 2.3 °F -1.5 °F 1030.0 in West 3.5 mph 6.1 mph 76 % 0.0 in
15:43 2.2 °F -1.6 °F 1030.0 in West 3.4 mph 6.1 mph 76 % 0.0 in
15:48 2.1 °F -1.7 °F 1030.0 in West 2.3 mph 4.7 mph 76 % 0.0 in
15:51 1.9 °F -1.9 °F 1030.0 in NW 2.1 mph 5.0 mph 76 % 0.0 in
15:56 1.7 °F -2.1 °F 1030.0 in NW 1.6 mph 5.0 mph 76 % 0.0 in
15:58 1.7 °F -2.1 °F 1030.0 in NW 1.4 mph 5.0 mph 76 % 0.0 in
16:03 1.6 °F -2.2 °F 1029.0 in NW 0.6 mph 2.6 mph 76 % 0.0 in
16:04 1.6 °F -2.2 °F 1029.0 in NW 0.6 mph 2.6 mph 76 % 0.0 in
16:09 1.5 °F -2.3 °F 1029.0 in NW 1.0 mph 4.0 mph 76 % 0.0 in
16:13 1.4 °F -2.4 °F 1029.0 in NW 0.8 mph 4.0 mph 76 % 0.0 in
16:15 1.4 °F -2.4 °F 1030.0 in NW 0.2 mph 1.8 mph 76 % 0.0 in
16:20 1.4 °F -2.4 °F 1030.0 in NW 0.2 mph 2.6 mph 76 % 0.0 in
16:25 1.3 °F -2.4 °F 1030.0 in NW 0.2 mph 2.6 mph 76 % 0.0 in
16:30 1.3 °F -2.4 °F 1030.0 in Calm     76 % 0.0 in
16:33 1.3 °F -2.4 °F 1030.0 in Calm     76 % 0.0 in
16:38 1.2 °F -2.4 °F 1030.0 in Calm     77 % 0.0 in
16:43 1.1 °F -2.5 °F 1030.0 in NW 0.5 mph 4.0 mph 77 % 0.0 in
16:47 1.1 °F -2.5 °F 1030.0 in NW 0.8 mph 4.0 mph 77 % 0.0 in
16:50 1.1 °F -2.5 °F 1030.0 in NW 0.8 mph 4.0 mph 77 % 0.0 in
16:54 1.0 °F -2.6 °F 1030.0 in NW 0.3 mph 2.1 mph 77 % 0.0 in
16:59 1.0 °F -2.6 °F 1030.0 in NW 1.1 mph 4.7 mph 77 % 0.0 in
17:03 0.9 °F -2.5 °F 1030.0 in NW 1.4 mph 4.7 mph 78 % 0.0 in
17:08 0.8 °F -2.6 °F 1030.0 in NW 0.8 mph 4.7 mph 78 % 0.0 in
17:10 0.7 °F -2.7 °F 1030.0 in NW 0.2 mph 1.4 mph 78 % 0.0 in
17:15 0.6 °F -2.8 °F 1030.0 in Calm   1.8 mph 78 % 0.0 in
17:16 0.6 °F -2.8 °F 1030.0 in Calm   1.8 mph 78 % 0.0 in
17:21 0.5 °F -2.9 °F 1030.0 in Calm   1.8 mph 78 % 0.0 in
17:26 0.4 °F -3.0 °F 1030.0 in Calm     78 % 0.0 in
17:31 0.4 °F -3.0 °F 1030.0 in NW 0.3 mph 3.2 mph 78 % 0.0 in
17:33 0.4 °F -3.0 °F 1030.0 in NW 0.5 mph 3.2 mph 78 % 0.0 in
17:38 0.3 °F -2.9 °F 1030.0 in NW 0.5 mph 3.2 mph 79 % 0.0 in
17:42 0.2 °F -3.0 °F 1030.0 in Calm   1.8 mph 79 % 0.0 in
17:47 0.1 °F -3.1 °F 1030.0 in NNW 0.6 mph 4.3 mph 79 % 0.0 in
17:49 0.1 °F -3.1 °F 1030.0 in NW 0.8 mph 4.3 mph 79 % 0.0 in
17:53 0.0 °F -3.2 °F 1030.0 in NW 0.8 mph 4.3 mph 79 % 0.0 in
17:56 -0.1 °F -3.3 °F 1030.0 in SW 0.5 mph 2.6 mph 79 % 0.0 in
18:01 -0.3 °F -3.5 °F 1030.0 in Calm     79 % 0.0 in
18:06 -0.4 °F -3.6 °F 1030.0 in Calm     79 % 0.0 in
18:12 -0.5 °F -3.7 °F 1030.0 in Calm     79 % 0.0 in
18:15 -0.6 °F -3.8 °F 1029.0 in Calm     79 % 0.0 in
18:20 -0.7 °F -3.9 °F 1029.0 in Calm     79 % 0.0 in
18:21 -0.7 °F -3.9 °F 1029.0 in Calm     79 % 0.0 in
18:23 -0.8 °F -3.8 °F 1029.0 in Calm     80 % 0.0 in
18:26 -0.8 °F -3.8 °F 1029.0 in Calm     80 % 0.0 in
18:30 -0.9 °F -3.9 °F 1029.0 in Calm     80 % 0.0 in
18:31 -0.9 °F -3.9 °F 1029.0 in Calm     80 % 0.0 in
18:33 -1.0 °F -4.0 °F 1029.0 in Calm     80 % 0.0 in
18:36 -1.0 °F -4.0 °F 1029.0 in Calm     80 % 0.0 in
18:41 -1.0 °F -4.0 °F 1029.0 in Calm     80 % 0.0 in
18:42 -1.1 °F -4.1 °F 1029.0 in Calm     80 % 0.0 in
18:47 -1.1 °F -3.9 °F 1030.0 in Calm     81 % 0.0 in
18:49 -1.2 °F -4.1 °F 1030.0 in Calm     81 % 0.0 in
18:50 -1.2 °F -4.1 °F 1030.0 in Calm     81 % 0.0 in
18:55 -1.2 °F -4.1 °F 1030.0 in Calm     81 % 0.0 in
19:00 -1.3 °F -4.2 °F 1029.0 in Calm     81 % 0.0 in
19:01 -1.3 °F -4.2 °F 1029.0 in Calm     81 % 0.0 in
19:06 -1.3 °F -4.2 °F 1029.0 in Calm     81 % 0.0 in
19:09 -1.3 °F -4.0 °F 1029.0 in Calm     82 % 0.0 in
19:14 -1.3 °F -4.0 °F 1029.0 in Calm     82 % 0.0 in
19:16 -1.2 °F -3.9 °F 1029.0 in Calm     82 % 0.0 in
19:21 -1.2 °F -3.9 °F 1029.0 in Calm     82 % 0.0 in
19:26 -1.2 °F -3.9 °F 1029.0 in Calm     82 % 0.0 in
19:29 -1.2 °F -3.7 °F 1029.0 in Calm     83 % 0.0 in
19:34 -1.2 °F -3.7 °F 1029.0 in Calm     83 % 0.0 in
19:35 -1.2 °F -3.7 °F 1029.0 in Calm     83 % 0.0 in
19:40 -1.2 °F -3.7 °F 1029.0 in Calm     83 % 0.0 in
19:43 -1.2 °F -3.7 °F 1029.0 in Calm     83 % 0.0 in
19:48 -1.2 °F -3.7 °F 1029.0 in Calm     83 % 0.0 in
19:53 -1.2 °F -3.6 °F 1029.0 in Calm     84 % 0.0 in
19:56 -1.1 °F -3.4 °F 1029.0 in Calm     84 % 0.0 in
20:01 -1.1 °F -3.4 °F 1029.0 in Calm     84 % 0.0 in
20:02 -1.1 °F -3.4 °F 1029.0 in Calm     84 % 0.0 in
20:07 -1.1 °F -3.4 °F 1029.0 in Calm     84 % 0.0 in
20:12 -1.0 °F -3.4 °F 1029.0 in Calm     84 % 0.0 in
20:17 -1.0 °F -3.2 °F 1029.0 in Calm     85 % 0.0 in
20:18 -1.0 °F -3.2 °F 1029.0 in Calm     85 % 0.0 in
20:19 -1.0 °F -3.2 °F 1029.0 in Calm     85 % 0.0 in
20:24 -1.0 °F -3.2 °F 1029.0 in Calm     85 % 0.0 in
20:29 -0.9 °F -3.1 °F 1029.0 in Calm     85 % 0.0 in
20:32 -0.9 °F -3.1 °F 1029.0 in Calm     85 % 0.0 in
20:37 -0.8 °F -3.0 °F 1029.0 in Calm     85 % 0.0 in
20:42 -0.8 °F -3.0 °F 1029.0 in Calm     85 % 0.0 in
20:43 -0.8 °F -3.0 °F 1029.0 in Calm     85 % 0.0 in
20:45 -0.7 °F -2.9 °F 1029.0 in Calm     85 % 0.0 in
20:49 -0.7 °F -2.9 °F 1029.0 in Calm     85 % 0.0 in
20:54 -0.7 °F -2.8 °F 1029.0 in Calm     86 % 0.0 in
20:59 -0.6 °F -2.7 °F 1029.0 in Calm     86 % 0.0 in
21:01 -0.6 °F -2.7 °F 1029.0 in Calm     86 % 0.0 in
21:06 -0.6 °F -2.7 °F 1029.0 in Calm     86 % 0.0 in
21:10 -0.6 °F -2.7 °F 1029.0 in Calm     86 % 0.0 in
21:14 -0.6 °F -2.7 °F 1029.0 in Calm     86 % 0.0 in
21:19 -0.5 °F -2.6 °F 1029.0 in Calm     86 % 0.0 in
21:24 -0.5 °F -2.4 °F 1029.0 in Calm     87 % 0.0 in
21:25 -0.5 °F -2.4 °F 1029.0 in Calm     87 % 0.0 in
21:29 -0.5 °F -2.4 °F 1029.0 in Calm     87 % 0.0 in
21:31 -0.5 °F -2.4 °F 1029.0 in Calm     87 % 0.0 in
21:36 -0.5 °F -2.4 °F 1029.0 in Calm     87 % 0.0 in
21:41 -0.5 °F -2.4 °F 1029.0 in Calm     87 % 0.0 in
21:44 -0.5 °F -2.4 °F 1029.0 in Calm     87 % 0.0 in
21:46 -0.5 °F -2.4 °F 1029.0 in Calm     87 % 0.0 in
21:51 -0.5 °F -2.4 °F 1029.0 in Calm     87 % 0.0 in
21:53 -0.5 °F -2.4 °F 1029.0 in Calm     87 % 0.0 in
21:58 -0.5 °F -2.4 °F 1029.0 in Calm     87 % 0.0 in
22:03 -0.5 °F -2.4 °F 1029.0 in Calm     87 % 0.0 in
22:08 -0.5 °F -2.2 °F 1029.0 in Calm     88 % 0.0 in
22:09 -0.5 °F -2.2 °F 1029.0 in Calm     88 % 0.0 in
22:14 -0.5 °F -2.2 °F 1029.0 in Calm     88 % 0.0 in
22:19 -0.5 °F -2.2 °F 1029.0 in Calm     88 % 0.0 in
22:20 -0.5 °F -2.2 °F 1029.0 in Calm     88 % 0.0 in
22:21 -0.5 °F -2.2 °F 1029.0 in Calm     88 % 0.0 in
22:26 -0.5 °F -2.2 °F 1029.0 in Calm     88 % 0.0 in
22:27 -0.5 °F -2.2 °F 1029.0 in Calm     88 % 0.0 in
22:28 -0.5 °F -2.2 °F 1029.0 in Calm     88 % 0.0 in
22:33 -0.5 °F -2.2 °F 1029.0 in Calm     88 % 0.0 in
22:35 -0.5 °F -2.2 °F 1029.0 in Calm     88 % 0.0 in
22:40 -0.5 °F -2.2 °F 1029.0 in Calm     88 % 0.0 in
22:45 -0.6 °F -2.3 °F 1029.0 in Calm     88 % 0.0 in
22:48 -0.6 °F -2.3 °F 1029.0 in Calm     88 % 0.0 in
22:53 0.0 °F -2.3 °F 1029.0 in Calm     0 % 0.0 in
22:54 -0.7 °F -2.4 °F 1029.0 in Calm     88 % 0.0 in
22:59 -0.8 °F -2.6 °F 1029.0 in Calm     88 % 0.0 in
23:00 -0.8 °F -2.6 °F 1029.0 in Calm     88 % 0.0 in
23:05 -0.8 °F -2.6 °F 1029.0 in Calm     88 % 0.0 in
23:10 -0.8 °F -2.6 °F 1029.0 in Calm     88 % 0.0 in
23:11 -0.8 °F -2.6 °F 1029.0 in Calm     88 % 0.0 in
23:16 -0.8 °F -2.6 °F 1029.0 in Calm     88 % 0.0 in
23:18 -0.8 °F -2.6 °F 1029.0 in Calm     88 % 0.0 in
23:23 -0.8 °F -2.6 °F 1029.0 in Calm     88 % 0.0 in
23:25 -0.8 °F -2.6 °F 1029.0 in Calm     88 % 0.0 in
23:30 -0.7 °F -2.4 °F 1030.0 in Calm     88 % 0.0 in
23:36 -0.7 °F -2.3 °F 1030.0 in Calm     89 % 0.0 in
23:39 -0.7 °F -2.3 °F 1030.0 in Calm     89 % 0.0 in
23:43 -0.7 °F -2.3 °F 1029.0 in Calm     89 % 0.0 in
23:48 -0.7 °F -2.3 °F 1029.0 in Calm     89 % 0.0 in
23:49 -0.7 °F -2.3 °F 1029.0 in Calm     89 % 0.0 in
23:53 -0.7 °F -2.3 °F 1029.0 in Calm     89 % 0.0 in
23:58 -0.7 °F -2.3 °F 1029.0 in Calm     89 % 0.0 in
Vremenska postaja Senovo
Podatki zbrani iz Weather Underground - 3.5 mb

Script developed by  Jim McMurry - jmcmurry@mwt.net Adapted for the template by  Wim van der Kuil - Leuven-Template.eu

Vremenski podatki so objavljeni na:

European Weather Network

WeatherCloud

Weather Underground

AWEKAS

HAMweather, WeatherForYou, PWS Weather

MapView

Geostik

Slovenia weather network

Oprema, ki se uporablja:

Vremenski program
Cumulus

Vremenski server
Asus

Cumulus

Asus